createdAt,value
2023-04-15T00:01:08.191Z,101072.91
2023-04-15T00:03:35.596Z,101070.16
2023-04-15T00:06:03.735Z,101080.31
2023-04-15T00:08:31.001Z,101080.97
2023-04-15T00:11:02.933Z,101066.63
2023-04-15T00:13:30.175Z,101065.84
2023-04-15T00:15:57.430Z,101073.59
2023-04-15T00:18:24.969Z,101071.16
2023-04-15T00:20:52.638Z,101068.09
2023-04-15T00:23:19.700Z,101066.00
2023-04-15T00:25:47.082Z,101067.78
2023-04-15T00:28:14.189Z,101065.56
2023-04-15T00:30:41.731Z,101080.84
2023-04-15T00:33:09.869Z,101070.88
2023-04-15T00:35:37.608Z,101071.84
2023-04-15T00:38:06.055Z,101070.09
2023-04-15T00:40:33.731Z,101073.97
2023-04-15T00:43:00.833Z,101075.25
2023-04-15T00:45:30.804Z,101083.81
2023-04-15T00:47:58.833Z,101084.13
2023-04-15T00:50:25.808Z,101087.50
2023-04-15T00:52:52.730Z,101083.16
2023-04-15T00:55:20.456Z,101089.44
2023-04-15T00:57:47.398Z,101082.38
2023-04-15T01:00:14.539Z,101089.44
2023-04-15T01:02:41.606Z,101083.66
2023-04-15T01:05:08.717Z,101083.94
2023-04-15T01:07:35.939Z,101092.00
2023-04-15T01:10:04.716Z,101087.16
2023-04-15T01:12:34.363Z,101087.03
2023-04-15T01:15:02.374Z,101087.81
2023-04-15T01:17:30.374Z,101090.09
2023-04-15T01:19:58.115Z,101096.66
2023-04-15T01:22:26.986Z,101098.75
2023-04-15T01:25:06.434Z,101095.25
2023-04-15T01:27:35.495Z,101093.28
2023-04-15T01:30:05.368Z,101094.44
2023-04-15T01:32:33.321Z,101096.03
2023-04-15T01:35:00.526Z,101101.84
2023-04-15T01:37:27.921Z,101097.81
2023-04-15T01:39:57.520Z,101099.91
2023-04-15T01:42:27.889Z,101098.28
2023-04-15T01:44:55.395Z,101103.28
2023-04-15T01:47:22.681Z,101097.81
2023-04-15T01:49:50.318Z,101105.53
2023-04-15T01:52:17.638Z,101105.53
2023-04-15T01:54:45.097Z,101102.97
2023-04-15T01:57:12.990Z,101109.41
2023-04-15T01:59:40.192Z,101106.69
2023-04-15T02:02:07.678Z,101100.38
2023-04-15T02:04:35.081Z,101107.44
2023-04-15T02:07:02.553Z,101104.25
2023-04-15T02:09:31.300Z,101108.41
2023-04-15T02:11:58.446Z,101108.22
2023-04-15T02:14:25.677Z,101107.75
2023-04-15T02:16:55.058Z,101106.94
2023-04-15T02:19:22.212Z,101107.41
2023-04-15T02:21:49.088Z,101108.56
2023-04-15T02:24:18.136Z,101119.81
2023-04-15T02:26:45.478Z,101113.53
2023-04-15T02:29:12.625Z,101123.34
2023-04-15T02:31:42.383Z,101125.44
2023-04-15T02:34:09.508Z,101126.91
2023-04-15T02:36:36.612Z,101130.28
2023-04-15T02:39:05.561Z,101132.84
2023-04-15T02:41:32.777Z,101132.84
2023-04-15T02:43:59.728Z,101140.06
2023-04-15T02:46:28.240Z,101139.56
2023-04-15T02:48:55.770Z,101147.44
2023-04-15T02:51:24.761Z,101143.22
2023-04-15T02:53:51.857Z,101145.78
2023-04-15T02:56:19.924Z,101149.03
2023-04-15T02:58:50.632Z,101152.25
2023-04-15T03:01:18.030Z,101155.31
2023-04-15T03:03:45.369Z,101158.53
2023-04-15T03:06:12.553Z,101161.88
2023-04-15T03:08:39.569Z,101167.38
2023-04-15T03:11:07.789Z,101170.72
2023-04-15T03:13:36.513Z,101163.47
2023-04-15T03:16:10.923Z,101166.81
2023-04-15T03:18:38.500Z,101176.66
2023-04-15T03:21:06.321Z,101176.16
2023-04-15T03:23:36.464Z,101175.97
2023-04-15T03:26:04.436Z,101186.44
2023-04-15T03:28:32.993Z,101180.47
2023-04-15T03:31:00.894Z,101184.00
2023-04-15T03:33:27.848Z,101181.28
2023-04-15T03:35:55.033Z,101183.81
2023-04-15T03:38:22.292Z,101180.59
2023-04-15T03:40:49.117Z,101182.06
2023-04-15T03:43:16.726Z,101194.91
2023-04-15T03:45:43.946Z,101184.13
2023-04-15T03:48:17.773Z,101189.41
2023-04-15T03:50:46.362Z,101191.66
2023-04-15T03:53:13.292Z,101198.84
2023-04-15T03:55:40.286Z,101201.88
2023-04-15T03:58:07.521Z,101205.59
2023-04-15T04:00:34.666Z,101205.41
2023-04-15T04:03:01.853Z,101206.84
2023-04-15T04:05:28.944Z,101208.97
2023-04-15T04:07:55.956Z,101219.41
2023-04-15T04:10:23.235Z,101222.16
2023-04-15T04:12:50.344Z,101220.66
2023-04-15T04:15:17.325Z,101221.09
2023-04-15T04:17:44.324Z,101216.06
2023-04-15T04:20:11.455Z,101217.78
2023-04-15T04:22:42.435Z,101222.78
2023-04-15T04:25:10.527Z,101224.19
2023-04-15T04:27:37.463Z,101230.91
2023-04-15T04:30:05.697Z,101231.72
2023-04-15T04:32:32.909Z,101231.19
2023-04-15T04:35:00.567Z,101233.44
2023-04-15T04:37:27.756Z,101239.22
2023-04-15T04:39:55.053Z,101242.25
2023-04-15T04:42:22.356Z,101246.59
2023-04-15T04:44:49.671Z,101240.13
2023-04-15T04:47:16.621Z,101245.59
2023-04-15T04:49:43.494Z,101244.91
2023-04-15T04:52:10.457Z,101244.91
2023-04-15T04:54:37.353Z,101249.44
2023-04-15T04:57:04.249Z,101248.53
2023-04-15T04:59:31.683Z,101250.94
2023-04-15T05:01:58.703Z,101259.03
2023-04-15T05:04:26.458Z,101259.84
2023-04-15T05:06:53.484Z,101264.16
2023-04-15T05:09:20.590Z,101263.53
2023-04-15T05:11:47.398Z,101265.97
2023-04-15T05:14:14.333Z,101265.03
2023-04-15T05:16:41.160Z,101269.88
2023-04-15T05:19:08.288Z,101274.38
2023-04-15T05:21:36.648Z,101269.81
2023-04-15T05:24:05.554Z,101272.75
2023-04-15T05:26:32.645Z,101278.88
2023-04-15T05:28:59.882Z,101280.19
2023-04-15T05:31:27.119Z,101285.91
2023-04-15T05:33:54.141Z,101288.81
2023-04-15T05:36:21.328Z,101288.06
2023-04-15T05:38:48.164Z,101288.94
2023-04-15T05:41:17.780Z,101288.69
2023-04-15T05:43:46.644Z,101289.50
2023-04-15T05:46:13.542Z,101292.81
2023-04-15T05:48:40.473Z,101294.84
2023-04-15T05:51:07.444Z,101299.72
2023-04-15T05:53:34.304Z,101303.78
2023-04-15T05:56:01.592Z,101308.84
2023-04-15T05:58:28.532Z,101301.84
2023-04-15T06:00:55.731Z,101310.91
2023-04-15T06:03:23.193Z,101310.59
2023-04-15T06:05:50.298Z,101304.03
2023-04-15T06:08:17.203Z,101319.00
2023-04-15T06:10:44.268Z,101325.63
2023-04-15T06:13:11.573Z,101323.19
2023-04-15T06:15:38.552Z,101333.66
2023-04-15T06:18:05.503Z,101346.53
2023-04-15T06:20:32.686Z,101353.44
2023-04-15T06:22:59.947Z,101355.63
2023-04-15T06:25:26.964Z,101350.75
2023-04-15T06:27:53.851Z,101360.41
2023-04-15T06:30:22.318Z,101362.91
2023-04-15T06:32:51.158Z,101366.28
2023-04-15T06:35:18.498Z,101361.75
2023-04-15T06:37:45.701Z,101365.78
2023-04-15T06:40:13.020Z,101368.69
2023-04-15T06:42:40.050Z,101369.16
2023-04-15T06:45:07.662Z,101376.53
2023-04-15T06:47:34.525Z,101380.69
2023-04-15T06:50:01.782Z,101388.41
2023-04-15T06:52:28.813Z,101380.47
2023-04-15T06:54:56.191Z,101384.78
2023-04-15T06:57:23.354Z,101393.09
2023-04-15T06:59:50.539Z,101391.84
2023-04-15T07:02:18.642Z,101394.16
2023-04-15T07:04:45.760Z,101397.31
2023-04-15T07:07:12.833Z,101401.81
2023-04-15T07:09:39.849Z,101407.94
2023-04-15T07:12:06.866Z,101412.16
2023-04-15T07:14:33.898Z,101409.31
2023-04-15T07:17:01.124Z,101416.44
2023-04-15T07:19:28.200Z,101419.94
2023-04-15T07:21:55.176Z,101418.63
2023-04-15T07:24:23.532Z,101424.59
2023-04-15T07:26:50.399Z,101424.47
2023-04-15T07:29:17.385Z,101430.25
2023-04-15T07:31:44.238Z,101441.28
2023-04-15T07:34:11.353Z,101429.13
2023-04-15T07:36:38.388Z,101441.16
2023-04-15T07:39:06.084Z,101443.78
2023-04-15T07:41:33.171Z,101451.34
2023-04-15T07:44:00.348Z,101449.38
2023-04-15T07:46:27.589Z,101443.34
2023-04-15T07:48:54.876Z,101450.47
2023-04-15T07:51:21.846Z,101452.94
2023-04-15T07:53:50.561Z,101448.72
2023-04-15T07:56:17.692Z,101447.44
2023-04-15T07:58:44.547Z,101453.22
2023-04-15T08:01:11.926Z,101465.50
2023-04-15T08:03:39.796Z,101458.19
2023-04-15T08:06:06.961Z,101458.56
2023-04-15T08:08:33.925Z,101453.31
2023-04-15T08:11:00.922Z,101456.66
2023-04-15T08:13:28.084Z,101471.63
2023-04-15T08:16:21.634Z,101470.13
2023-04-15T08:18:49.782Z,101471.72
2023-04-15T08:21:17.864Z,101471.63
2023-04-15T08:23:48.100Z,101475.41
2023-04-15T08:26:15.252Z,101471.16
2023-04-15T08:28:43.130Z,101479.31
2023-04-15T08:31:10.105Z,101484.94
2023-04-15T08:33:37.061Z,101490.22
2023-04-15T08:36:04.669Z,101482.31
2023-04-15T08:38:31.940Z,101484.69
2023-04-15T08:41:02.203Z,101498.38
2023-04-15T08:43:40.934Z,101497.00
2023-04-15T08:46:10.191Z,101498.13
2023-04-15T08:48:40.512Z,101491.78
2023-04-15T08:51:08.534Z,101501.88
2023-04-15T08:53:35.738Z,101507.75
2023-04-15T08:56:07.746Z,101521.53
2023-04-15T08:58:36.582Z,101513.44
2023-04-15T09:01:03.591Z,101520.72
2023-04-15T09:03:30.886Z,101530.13
2023-04-15T09:05:58.460Z,101523.22
2023-04-15T09:08:25.556Z,101518.69
2023-04-15T09:10:54.489Z,101531.22
2023-04-15T09:13:22.216Z,101546.44
2023-04-15T09:15:49.356Z,101531.06
2023-04-15T09:18:31.120Z,101541.81
2023-04-15T09:21:15.104Z,101547.34
2023-04-15T09:23:55.707Z,101552.97
2023-04-15T09:26:36.508Z,101550.94
2023-04-15T09:29:06.909Z,101549.09
2023-04-15T09:31:34.083Z,101557.72
2023-04-15T09:34:01.363Z,101545.84
2023-04-15T09:36:31.819Z,101557.50
2023-04-15T09:39:00.114Z,101554.00
2023-04-15T09:41:28.627Z,101559.38
2023-04-15T09:43:55.927Z,101552.91
2023-04-15T09:46:44.708Z,101569.28
2023-04-15T09:49:12.993Z,101572.66
2023-04-15T09:51:39.875Z,101570.81
2023-04-15T09:54:07.418Z,101578.38
2023-04-15T09:56:41.634Z,101576.88
2023-04-15T09:59:09.240Z,101579.69
2023-04-15T10:01:37.276Z,101580.72
2023-04-15T10:04:06.104Z,101572.56
2023-04-15T10:06:34.217Z,101571.53
2023-04-15T10:09:01.990Z,101580.72
2023-04-15T10:11:31.619Z,101575.78
2023-04-15T10:13:59.285Z,101574.63
2023-04-15T10:16:29.440Z,101580.84
2023-04-15T10:18:57.289Z,101567.38
2023-04-15T10:21:24.887Z,101580.25
2023-04-15T10:23:52.318Z,101574.84
2023-04-15T10:26:20.341Z,101567.38
2023-04-15T10:28:48.375Z,101588.28
2023-04-15T10:31:17.075Z,101582.91
2023-04-15T10:33:44.877Z,101595.06
2023-04-15T10:36:12.716Z,101597.59
2023-04-15T10:38:44.357Z,101599.47
2023-04-15T10:41:21.899Z,101601.16
2023-04-15T10:43:55.184Z,101597.97
2023-04-15T10:46:24.890Z,101604.19
2023-04-15T10:48:53.754Z,101596.03
2023-04-15T10:51:28.852Z,101605.91
2023-04-15T10:54:02.237Z,101602.09
2023-04-15T10:56:30.753Z,101610.38
2023-04-15T10:58:59.935Z,101599.19
2023-04-15T11:02:02.596Z,101609.19
2023-04-15T11:04:51.468Z,101619.66
2023-04-15T11:07:47.123Z,101616.16
2023-04-15T11:10:14.257Z,101627.94
2023-04-15T11:12:42.000Z,101621.78
2023-04-15T11:15:38.055Z,101636.59
2023-04-15T11:18:25.229Z,101620.03
2023-04-15T11:21:03.671Z,101622.16
2023-04-15T11:23:36.037Z,101626.03
2023-04-15T11:26:06.969Z,101623.56
2023-04-15T11:28:34.318Z,101633.34
2023-04-15T11:31:15.060Z,101634.31
2023-04-15T11:33:48.099Z,101648.16
2023-04-15T11:36:15.302Z,101641.06
2023-04-15T11:38:47.784Z,101660.81
2023-04-15T11:41:15.081Z,101647.72
2023-04-15T11:43:42.951Z,101650.22
2023-04-15T11:46:10.124Z,101648.22
2023-04-15T11:48:37.227Z,101653.91
2023-04-15T11:51:06.422Z,101655.66
2023-04-15T11:53:46.666Z,101664.59
2023-04-15T11:56:24.728Z,101663.56
2023-04-15T11:59:02.549Z,101674.34
2023-04-15T12:01:37.203Z,101678.31
2023-04-15T12:04:15.835Z,101688.09
2023-04-15T12:06:43.209Z,101681.31
2023-04-15T12:09:12.459Z,101676.44
2023-04-15T12:11:59.477Z,101680.47
2023-04-15T12:14:28.610Z,101686.56
2023-04-15T12:16:58.849Z,101680.09
2023-04-15T12:19:28.995Z,101689.19
2023-04-15T12:22:01.325Z,101688.44
2023-04-15T12:24:31.449Z,101692.56
2023-04-15T12:27:01.904Z,101695.06
2023-04-15T12:29:32.734Z,101687.69
2023-04-15T12:32:06.761Z,101704.09
2023-04-15T12:34:36.290Z,101716.94
2023-04-15T12:37:06.850Z,101707.81
2023-04-15T12:39:41.937Z,101719.44
2023-04-15T12:42:09.852Z,101713.41
2023-04-15T12:44:37.662Z,101718.53
2023-04-15T12:47:04.957Z,101726.31
2023-04-15T12:49:32.993Z,101712.03
2023-04-15T12:52:01.618Z,101717.34
2023-04-15T12:54:30.273Z,101714.78
2023-04-15T12:56:57.855Z,101725.69
2023-04-15T12:59:25.645Z,101719.19
2023-04-15T13:01:53.991Z,101718.00
2023-04-15T13:04:22.426Z,101717.53
2023-04-15T13:06:49.823Z,101727.69
2023-04-15T13:09:16.938Z,101723.31
2023-04-15T13:11:44.357Z,101723.06
2023-04-15T13:14:13.192Z,101731.97
2023-04-15T13:16:40.499Z,101737.63
2023-04-15T13:19:07.606Z,101735.69
2023-04-15T13:21:36.185Z,101726.81
2023-04-15T13:24:04.846Z,101723.56
2023-04-15T13:26:32.277Z,101750.66
2023-04-15T13:28:59.559Z,101739.53
2023-04-15T13:31:27.252Z,101754.16
2023-04-15T13:33:54.919Z,101745.91
2023-04-15T13:36:22.160Z,101742.78
2023-04-15T13:38:51.446Z,101747.19
2023-04-15T13:41:19.056Z,101748.13
2023-04-15T13:43:46.366Z,101756.41
2023-04-15T13:46:14.209Z,101749.34
2023-04-15T13:48:41.648Z,101760.28
2023-04-15T13:51:08.838Z,101759.06
2023-04-15T13:53:39.130Z,101762.31
2023-04-15T13:56:08.088Z,101763.19
2023-04-15T13:58:34.994Z,101757.88
2023-04-15T14:01:04.685Z,101780.25
2023-04-15T14:03:32.942Z,101769.78
2023-04-15T14:05:59.996Z,101767.75
2023-04-15T14:08:27.172Z,101766.94
2023-04-15T14:10:54.179Z,101780.34
2023-04-15T14:13:21.121Z,101773.69
2023-04-15T14:15:48.112Z,101782.88
2023-04-15T14:18:15.409Z,101788.88
2023-04-15T14:20:42.255Z,101785.50
2023-04-15T14:23:09.240Z,101788.75
2023-04-15T14:25:36.186Z,101800.59
2023-04-15T14:28:03.825Z,101799.66
2023-04-15T14:30:30.890Z,101798.25
2023-04-15T14:32:57.978Z,101805.66
2023-04-15T14:35:27.496Z,101801.28
2023-04-15T14:37:55.383Z,101807.22
2023-04-15T14:40:22.852Z,101796.53
2023-04-15T14:42:50.258Z,101805.66
2023-04-15T14:45:17.762Z,101818.91
2023-04-15T14:47:45.255Z,101813.91
2023-04-15T14:50:12.349Z,101813.28
2023-04-15T14:52:39.337Z,101816.91
2023-04-15T14:55:13.289Z,101812.28
2023-04-15T14:57:41.919Z,101832.16
2023-04-15T15:00:10.701Z,101833.44
2023-04-15T15:02:40.441Z,101830.88
2023-04-15T15:05:09.019Z,101830.91
2023-04-15T15:07:37.420Z,101831.56
2023-04-15T15:10:05.370Z,101840.47
2023-04-15T15:12:32.975Z,101845.34
2023-04-15T15:15:01.516Z,101845.53
2023-04-15T15:17:28.744Z,101849.56
2023-04-15T15:19:55.612Z,101850.69
2023-04-15T15:22:22.656Z,101842.94
2023-04-15T15:24:49.505Z,101849.09
2023-04-15T15:27:16.385Z,101843.69
2023-04-15T15:29:43.527Z,101851.34
2023-04-15T15:32:10.545Z,101853.81
2023-04-15T15:34:37.486Z,101860.75
2023-04-15T15:37:04.383Z,101846.50
2023-04-15T15:39:31.387Z,101853.97
2023-04-15T15:41:58.280Z,101854.16
2023-04-15T15:44:25.305Z,101856.41
2023-04-15T15:46:52.419Z,101853.34
2023-04-15T15:49:19.994Z,101868.69
2023-04-15T15:51:46.935Z,101861.91
2023-04-15T15:54:13.884Z,101862.56
2023-04-15T15:56:42.208Z,101866.75
2023-04-15T15:59:09.157Z,101878.94
2023-04-15T16:01:36.401Z,101875.50
2023-04-15T16:04:03.586Z,101878.91
2023-04-15T16:06:32.761Z,101875.50
2023-04-15T16:09:01.846Z,101879.41
2023-04-15T16:11:29.425Z,101890.25
2023-04-15T16:13:56.446Z,101879.88
2023-04-15T16:16:24.589Z,101886.84
2023-04-15T16:18:51.738Z,101883.94
2023-04-15T16:21:20.426Z,101875.69
2023-04-15T16:23:47.720Z,101887.31
2023-04-15T16:26:14.911Z,101886.38
2023-04-15T16:28:41.830Z,101882.47
2023-04-15T16:31:10.724Z,101888.78
2023-04-15T16:33:38.821Z,101889.28
2023-04-15T16:36:05.775Z,101894.78
2023-04-15T16:38:32.663Z,101890.72
2023-04-15T16:41:01.552Z,101890.91
2023-04-15T16:43:29.020Z,101895.41
2023-04-15T16:45:56.120Z,101897.03
2023-04-15T16:48:23.205Z,101908.03
2023-04-15T16:50:50.499Z,101904.00
2023-04-15T16:53:17.656Z,101911.75
2023-04-15T16:55:44.507Z,101913.03
2023-04-15T16:58:11.656Z,101910.44
2023-04-15T17:00:38.821Z,101919.81
2023-04-15T17:03:06.240Z,101918.69
2023-04-15T17:05:33.689Z,101923.88
2023-04-15T17:08:00.634Z,101923.22
2023-04-15T17:10:28.237Z,101925.00
2023-04-15T17:12:58.403Z,101926.44
2023-04-15T17:15:26.190Z,101918.03
2023-04-15T17:17:53.701Z,101923.53
2023-04-15T17:20:21.086Z,101927.41
2023-04-15T17:22:48.847Z,101942.63
2023-04-15T17:25:16.010Z,101938.56
2023-04-15T17:27:42.922Z,101943.59
2023-04-15T17:30:10.204Z,101940.97
2023-04-15T17:32:37.341Z,101942.25
2023-04-15T17:35:06.418Z,101949.38
2023-04-15T17:37:34.594Z,101943.41
2023-04-15T17:40:01.960Z,101944.69
2023-04-15T17:42:28.957Z,101941.78
2023-04-15T17:44:55.871Z,101945.66
2023-04-15T17:47:22.924Z,101942.25
2023-04-15T17:49:50.276Z,101953.59
2023-04-15T17:52:17.539Z,101947.44
2023-04-15T17:54:46.018Z,101952.63
2023-04-15T17:57:12.897Z,101963.13
2023-04-15T17:59:44.007Z,101963.94
2023-04-15T18:02:11.799Z,101958.91
2023-04-15T18:04:39.755Z,101974.28
2023-04-15T18:07:06.982Z,101969.91
2023-04-15T18:09:33.917Z,101975.41
2023-04-15T18:12:02.237Z,101970.25
2023-04-15T18:14:34.752Z,101977.03
2023-04-15T18:17:05.325Z,101992.53
2023-04-15T18:19:32.803Z,101989.94
2023-04-15T18:22:00.665Z,101995.88
2023-04-15T18:24:28.307Z,101998.31
2023-04-15T18:26:56.588Z,101994.44
2023-04-15T18:29:23.680Z,101998.81
2023-04-15T18:31:50.732Z,101999.31
2023-04-15T18:34:18.063Z,102010.44
2023-04-15T18:36:46.508Z,101999.44
2023-04-15T18:39:13.486Z,102013.69
2023-04-15T18:41:40.464Z,102018.88
2023-04-15T18:44:07.430Z,102024.66
2023-04-15T18:46:34.513Z,102026.31
2023-04-15T18:49:01.731Z,102025.78
2023-04-15T18:51:28.593Z,102027.91
2023-04-15T18:53:55.751Z,102031.28
2023-04-15T18:56:22.799Z,102033.53
2023-04-15T18:59:19.069Z,102036.78
2023-04-15T19:01:37.115Z,102043.28
2023-04-15T19:04:04.068Z,102042.47
2023-04-15T19:06:34.049Z,102042.16
2023-04-15T19:09:01.288Z,102035.69
2023-04-15T19:11:28.530Z,102032.47
2023-04-15T19:13:55.680Z,102033.28
2023-04-15T19:16:22.751Z,102033.28
2023-04-15T19:18:49.667Z,102027.47
2023-04-15T19:21:16.685Z,102034.59
2023-04-15T19:23:43.894Z,102036.34
2023-04-15T19:26:11.998Z,102032.66
2023-04-15T19:28:38.991Z,102029.91
2023-04-15T19:31:06.844Z,102037.34
2023-04-15T19:33:33.971Z,102039.28
2023-04-15T19:36:02.282Z,102040.22
2023-04-15T19:38:30.664Z,102034.88
2023-04-15T19:40:58.782Z,102036.84
2023-04-15T19:43:26.368Z,102044.75
2023-04-15T19:45:55.046Z,102056.09
2023-04-15T19:48:24.860Z,102050.25
2023-04-15T19:50:52.022Z,102057.69
2023-04-15T19:53:19.374Z,102063.19
2023-04-15T19:55:47.209Z,102061.59
2023-04-15T19:58:14.210Z,102063.38
2023-04-15T20:00:42.159Z,102072.25
2023-04-15T20:03:09.698Z,102066.28
2023-04-15T20:05:36.901Z,102076.63
2023-04-15T20:08:03.848Z,102060.63
2023-04-15T20:10:31.954Z,102067.75
2023-04-15T20:12:59.029Z,102068.56
2023-04-15T20:15:26.293Z,102061.94
2023-04-15T20:17:53.578Z,102069.06
2023-04-15T20:20:21.064Z,102068.91
2023-04-15T20:22:48.166Z,102066.16
2023-04-15T20:25:15.224Z,102068.44
2023-04-15T20:27:42.255Z,102073.13
2023-04-15T20:30:09.596Z,102062.31
2023-04-15T20:32:36.764Z,102076.34
2023-04-15T20:35:05.078Z,102068.63
2023-04-15T20:37:33.658Z,102069.44
2023-04-15T20:40:01.554Z,102071.84
2023-04-15T20:42:33.747Z,102069.28
2023-04-15T20:45:01.258Z,102074.44
2023-04-15T20:47:28.693Z,102077.19
2023-04-15T20:49:55.926Z,102078.66
2023-04-15T20:52:23.061Z,102079.78
2023-04-15T20:54:51.047Z,102092.22
2023-04-15T20:57:18.361Z,102083.97
2023-04-15T20:59:45.404Z,102083.47
2023-04-15T21:02:12.464Z,102084.28
2023-04-15T21:04:39.514Z,102090.44
2023-04-15T21:07:06.607Z,102094.66
2023-04-15T21:09:33.632Z,102092.22
2023-04-15T21:12:02.201Z,102095.59
2023-04-15T21:14:29.617Z,102100.59
2023-04-15T21:16:59.788Z,102098.19
2023-04-15T21:19:26.804Z,102102.34
2023-04-15T21:21:53.841Z,102090.88
2023-04-15T21:24:20.903Z,102100.94
2023-04-15T21:26:47.785Z,102096.22
2023-04-15T21:29:14.894Z,102096.56
2023-04-15T21:31:42.154Z,102094.91
2023-04-15T21:34:09.818Z,102096.56
2023-04-15T21:36:37.849Z,102114.06
2023-04-15T21:39:05.489Z,102095.94
2023-04-15T21:41:36.698Z,102088.16
2023-04-15T21:44:04.394Z,102094.81
2023-04-15T21:46:32.991Z,102094.47
2023-04-15T21:49:02.037Z,102102.72
2023-04-15T21:51:28.990Z,102103.22
2023-04-15T21:53:56.172Z,102105.84
2023-04-15T21:56:24.414Z,102102.91
2023-04-15T21:58:56.800Z,102113.56
2023-04-15T22:01:25.091Z,102110.19
2023-04-15T22:03:52.764Z,102113.56
2023-04-15T22:06:19.859Z,102127.03
2023-04-15T22:08:56.299Z,102127.03
2023-04-15T22:11:33.982Z,102132.81
2023-04-15T22:14:00.967Z,102130.72
2023-04-15T22:16:28.429Z,102125.22
2023-04-15T22:18:55.794Z,102137.84
2023-04-15T22:21:23.377Z,102131.22
2023-04-15T22:23:51.261Z,102134.47
2023-04-15T22:26:18.307Z,102139.97
2023-04-15T22:28:45.832Z,102132.72
2023-04-15T22:31:13.778Z,102134.66
2023-04-15T22:33:41.080Z,102139.16
2023-04-15T22:36:08.242Z,102136.22
2023-04-15T22:38:35.428Z,102145.59
2023-04-15T22:41:02.435Z,102140.09
2023-04-15T22:43:29.397Z,102141.72
2023-04-15T22:45:56.761Z,102151.28
2023-04-15T22:48:23.900Z,102155.78
2023-04-15T22:50:50.911Z,102153.53
2023-04-15T22:53:18.624Z,102146.91
2023-04-15T22:55:47.592Z,102149.97
2023-04-15T22:58:15.278Z,102160.47
2023-04-15T23:00:42.271Z,102158.84
2023-04-15T23:03:09.428Z,102173.09
2023-04-15T23:05:36.794Z,102168.41
2023-04-15T23:08:03.944Z,102168.09
2023-04-15T23:10:31.028Z,102177.97
2023-04-15T23:12:58.003Z,102168.09
2023-04-15T23:15:25.424Z,102167.59
2023-04-15T23:17:52.384Z,102175.84
2023-04-15T23:20:19.240Z,102176.34
2023-04-15T23:22:46.308Z,102174.06
2023-04-15T23:25:13.355Z,102173.78
2023-04-15T23:27:40.300Z,102182.03
2023-04-15T23:30:07.790Z,102178.31
2023-04-15T23:32:34.925Z,102181.25
2023-04-15T23:35:02.148Z,102191.44
2023-04-15T23:37:31.030Z,102187.09
2023-04-15T23:39:58.075Z,102190.66
2023-04-15T23:42:26.048Z,102188.88
2023-04-15T23:44:53.092Z,102192.25
2023-04-15T23:47:21.217Z,102191.78
2023-04-15T23:49:48.408Z,102186.91
2023-04-15T23:52:15.476Z,102213.09
2023-04-15T23:54:42.611Z,102207.59
2023-04-15T23:57:09.834Z,102198.81
2023-04-15T23:59:36.721Z,102204.66
